sensor_id;sensor_type;location;lat;lon;timestamp;P1;durP1;ratioP1;P2;durP2;ratioP2
4597;SDS011;62772;48.646;8.906;2023-02-10T00:02:05;37.97;;;16.40;;
4597;SDS011;62772;48.646;8.906;2023-02-10T00:07:05;37.70;;;16.50;;
4597;SDS011;62772;48.646;8.906;2023-02-10T00:12:06;35.20;;;18.00;;
4597;SDS011;62772;48.646;8.906;2023-02-10T00:17:08;39.00;;;17.80;;
4597;SDS011;62772;48.646;8.906;2023-02-10T00:22:09;38.50;;;16.97;;
4597;SDS011;62772;48.646;8.906;2023-02-10T00:27:09;39.83;;;17.73;;
4597;SDS011;62772;48.646;8.906;2023-02-10T00:32:10;37.90;;;16.87;;
4597;SDS011;62772;48.646;8.906;2023-02-10T00:37:13;42.53;;;17.40;;
4597;SDS011;62772;48.646;8.906;2023-02-10T00:42:14;37.30;;;18.00;;
4597;SDS011;62772;48.646;8.906;2023-02-10T00:47:14;30.67;;;14.90;;
4597;SDS011;62772;48.646;8.906;2023-02-10T00:52:14;41.03;;;16.77;;
4597;SDS011;62772;48.646;8.906;2023-02-10T00:57:15;38.60;;;16.20;;
4597;SDS011;62772;48.646;8.906;2023-02-10T01:02:16;36.07;;;16.80;;
4597;SDS011;62772;48.646;8.906;2023-02-10T01:07:18;44.60;;;17.50;;
4597;SDS011;62772;48.646;8.906;2023-02-10T01:12:18;39.43;;;17.80;;
4597;SDS011;62772;48.646;8.906;2023-02-10T01:17:19;37.73;;;16.87;;
4597;SDS011;62772;48.646;8.906;2023-02-10T01:22:19;44.50;;;18.53;;
4597;SDS011;62772;48.646;8.906;2023-02-10T01:27:20;40.77;;;18.43;;
4597;SDS011;62772;48.646;8.906;2023-02-10T01:32:20;42.33;;;17.20;;
4597;SDS011;62772;48.646;8.906;2023-02-10T01:37:20;36.80;;;16.60;;
4597;SDS011;62772;48.646;8.906;2023-02-10T01:42:23;44.30;;;19.23;;
4597;SDS011;62772;48.646;8.906;2023-02-10T01:47:24;50.30;;;20.87;;
4597;SDS011;62772;48.646;8.906;2023-02-10T01:52:25;43.37;;;19.67;;
4597;SDS011;62772;48.646;8.906;2023-02-10T01:57:29;41.77;;;18.83;;
4597;SDS011;62772;48.646;8.906;2023-02-10T02:02:31;44.90;;;20.80;;
4597;SDS011;62772;48.646;8.906;2023-02-10T02:07:35;40.27;;;18.80;;
4597;SDS011;62772;48.646;8.906;2023-02-10T02:12:45;53.73;;;21.83;;
4597;SDS011;62772;48.646;8.906;2023-02-10T02:17:54;45.40;;;20.13;;
4597;SDS011;62772;48.646;8.906;2023-02-10T02:34:30;43.60;;;21.43;;
4597;SDS011;62772;48.646;8.906;2023-02-10T02:39:37;54.40;;;21.77;;
4597;SDS011;62772;48.646;8.906;2023-02-10T02:44:38;51.40;;;22.87;;
4597;SDS011;62772;48.646;8.906;2023-02-10T02:55:06;45.80;;;20.97;;
4597;SDS011;62772;48.646;8.906;2023-02-10T03:00:15;47.80;;;21.53;;
4597;SDS011;62772;48.646;8.906;2023-02-10T03:05:22;51.47;;;21.83;;
4597;SDS011;62772;48.646;8.906;2023-02-10T03:10:27;55.23;;;23.47;;
4597;SDS011;62772;48.646;8.906;2023-02-10T03:15:28;54.43;;;22.33;;
4597;SDS011;62772;48.646;8.906;2023-02-10T03:20:30;45.87;;;21.13;;
4597;SDS011;62772;48.646;8.906;2023-02-10T03:25:31;43.60;;;19.23;;
4597;SDS011;62772;48.646;8.906;2023-02-10T03:30:32;53.63;;;22.60;;
4597;SDS011;62772;48.646;8.906;2023-02-10T03:35:36;49.60;;;19.60;;
4597;SDS011;62772;48.646;8.906;2023-02-10T03:40:38;59.47;;;20.40;;
4597;SDS011;62772;48.646;8.906;2023-02-10T03:45:38;45.97;;;19.17;;
4597;SDS011;62772;48.646;8.906;2023-02-10T03:50:39;44.30;;;20.10;;
4597;SDS011;62772;48.646;8.906;2023-02-10T03:55:40;49.53;;;20.03;;
4597;SDS011;62772;48.646;8.906;2023-02-10T04:00:40;45.03;;;18.80;;
4597;SDS011;62772;48.646;8.906;2023-02-10T04:05:41;45.23;;;18.70;;
4597;SDS011;62772;48.646;8.906;2023-02-10T04:10:41;52.43;;;20.27;;
4597;SDS011;62772;48.646;8.906;2023-02-10T04:15:41;51.03;;;20.20;;
4597;SDS011;62772;48.646;8.906;2023-02-10T04:20:42;39.27;;;18.90;;
4597;SDS011;62772;48.646;8.906;2023-02-10T04:25:42;48.03;;;20.10;;
4597;SDS011;62772;48.646;8.906;2023-02-10T04:30:43;49.80;;;19.77;;
4597;SDS011;62772;48.646;8.906;2023-02-10T04:35:43;44.93;;;20.13;;
4597;SDS011;62772;48.646;8.906;2023-02-10T04:40:46;40.93;;;17.90;;
4597;SDS011;62772;48.646;8.906;2023-02-10T04:45:47;48.23;;;19.70;;
4597;SDS011;62772;48.646;8.906;2023-02-10T04:50:47;44.63;;;19.30;;
4597;SDS011;62772;48.646;8.906;2023-02-10T04:55:48;44.03;;;17.50;;
4597;SDS011;62772;48.646;8.906;2023-02-10T05:00:49;44.67;;;18.20;;
4597;SDS011;62772;48.646;8.906;2023-02-10T05:05:49;41.73;;;17.57;;
4597;SDS011;62772;48.646;8.906;2023-02-10T05:10:52;40.70;;;18.50;;
4597;SDS011;62772;48.646;8.906;2023-02-10T05:15:53;42.77;;;17.47;;
4597;SDS011;62772;48.646;8.906;2023-02-10T05:20:53;43.80;;;18.97;;
4597;SDS011;62772;48.646;8.906;2023-02-10T05:25:54;47.07;;;16.97;;
4597;SDS011;62772;48.646;8.906;2023-02-10T05:30:54;42.40;;;17.47;;
4597;SDS011;62772;48.646;8.906;2023-02-10T05:35:55;45.60;;;18.23;;
4597;SDS011;62772;48.646;8.906;2023-02-10T05:40:55;43.27;;;18.60;;
4597;SDS011;62772;48.646;8.906;2023-02-10T05:45:56;35.10;;;17.33;;
4597;SDS011;62772;48.646;8.906;2023-02-10T05:50:56;43.90;;;16.70;;
4597;SDS011;62772;48.646;8.906;2023-02-10T05:55:57;39.00;;;18.50;;
4597;SDS011;62772;48.646;8.906;2023-02-10T06:00:57;42.17;;;17.60;;
4597;SDS011;62772;48.646;8.906;2023-02-10T06:05:58;38.87;;;16.97;;
4597;SDS011;62772;48.646;8.906;2023-02-10T06:10:59;54.77;;;17.90;;
4597;SDS011;62772;48.646;8.906;2023-02-10T06:15:59;47.97;;;19.20;;
4597;SDS011;62772;48.646;8.906;2023-02-10T06:21:01;37.00;;;17.73;;
4597;SDS011;62772;48.646;8.906;2023-02-10T06:26:01;34.23;;;16.50;;
4597;SDS011;62772;48.646;8.906;2023-02-10T06:31:02;39.70;;;18.40;;
4597;SDS011;62772;48.646;8.906;2023-02-10T06:36:03;40.90;;;16.80;;
4597;SDS011;62772;48.646;8.906;2023-02-10T06:41:06;42.80;;;18.40;;
4597;SDS011;62772;48.646;8.906;2023-02-10T06:46:06;40.80;;;16.87;;
4597;SDS011;62772;48.646;8.906;2023-02-10T06:51:07;39.67;;;17.60;;
4597;SDS011;62772;48.646;8.906;2023-02-10T06:56:07;37.90;;;17.97;;
4597;SDS011;62772;48.646;8.906;2023-02-10T07:01:12;43.70;;;18.00;;
4597;SDS011;62772;48.646;8.906;2023-02-10T07:06:15;38.50;;;17.50;;
4597;SDS011;62772;48.646;8.906;2023-02-10T07:11:18;46.90;;;18.03;;
4597;SDS011;62772;48.646;8.906;2023-02-10T07:16:18;39.40;;;16.30;;
4597;SDS011;62772;48.646;8.906;2023-02-10T07:21:19;35.97;;;16.67;;
4597;SDS011;62772;48.646;8.906;2023-02-10T07:26:19;41.50;;;18.33;;
4597;SDS011;62772;48.646;8.906;2023-02-10T07:31:20;46.00;;;19.23;;
4597;SDS011;62772;48.646;8.906;2023-02-10T07:36:20;45.87;;;18.97;;
4597;SDS011;62772;48.646;8.906;2023-02-10T07:41:21;62.50;;;31.07;;
4597;SDS011;62772;48.646;8.906;2023-02-10T07:46:21;48.43;;;23.10;;
4597;SDS011;62772;48.646;8.906;2023-02-10T07:51:22;53.13;;;21.37;;
4597;SDS011;62772;48.646;8.906;2023-02-10T07:56:22;44.77;;;21.30;;
4597;SDS011;62772;48.646;8.906;2023-02-10T08:01:22;49.33;;;23.03;;
4597;SDS011;62772;48.646;8.906;2023-02-10T08:06:23;49.77;;;22.40;;
4597;SDS011;62772;48.646;8.906;2023-02-10T08:11:26;52.83;;;24.00;;
4597;SDS011;62772;48.646;8.906;2023-02-10T08:16:26;52.80;;;25.20;;
4597;SDS011;62772;48.646;8.906;2023-02-10T08:21:26;55.90;;;26.00;;
4597;SDS011;62772;48.646;8.906;2023-02-10T08:26:27;55.67;;;24.13;;
4597;SDS011;62772;48.646;8.906;2023-02-10T08:31:27;56.40;;;23.40;;
4597;SDS011;62772;48.646;8.906;2023-02-10T08:36:28;51.97;;;24.70;;
4597;SDS011;62772;48.646;8.906;2023-02-10T08:41:28;53.40;;;26.80;;
4597;SDS011;62772;48.646;8.906;2023-02-10T08:46:30;67.13;;;29.27;;
4597;SDS011;62772;48.646;8.906;2023-02-10T08:51:31;62.97;;;28.73;;
4597;SDS011;62772;48.646;8.906;2023-02-10T08:56:32;67.27;;;29.27;;
4597;SDS011;62772;48.646;8.906;2023-02-10T09:01:33;67.17;;;28.80;;
4597;SDS011;62772;48.646;8.906;2023-02-10T09:06:34;61.17;;;26.47;;
4597;SDS011;62772;48.646;8.906;2023-02-10T09:11:39;70.33;;;29.13;;
4597;SDS011;62772;48.646;8.906;2023-02-10T09:16:40;62.50;;;28.40;;
4597;SDS011;62772;48.646;8.906;2023-02-10T09:21:40;60.17;;;27.80;;
4597;SDS011;62772;48.646;8.906;2023-02-10T09:26:41;65.63;;;29.00;;
4597;SDS011;62772;48.646;8.906;2023-02-10T09:31:42;60.33;;;26.07;;
4597;SDS011;62772;48.646;8.906;2023-02-10T09:36:42;72.20;;;31.40;;
4597;SDS011;62772;48.646;8.906;2023-02-10T10:03:21;64.57;;;28.90;;
4597;SDS011;62772;48.646;8.906;2023-02-10T10:08:29;54.67;;;25.43;;
4597;SDS011;62772;48.646;8.906;2023-02-10T10:13:32;66.53;;;28.47;;
4597;SDS011;62772;48.646;8.906;2023-02-10T10:18:40;63.77;;;28.73;;
4597;SDS011;62772;48.646;8.906;2023-02-10T10:29:08;67.80;;;30.10;;
4597;SDS011;62772;48.646;8.906;2023-02-10T10:34:19;60.97;;;28.87;;
4597;SDS011;62772;48.646;8.906;2023-02-10T10:39:28;57.40;;;30.83;;
4597;SDS011;62772;48.646;8.906;2023-02-10T10:44:31;61.53;;;28.00;;
4597;SDS011;62772;48.646;8.906;2023-02-10T10:49:32;52.40;;;27.20;;
4597;SDS011;62772;48.646;8.906;2023-02-10T10:54:32;54.43;;;26.93;;
4597;SDS011;62772;48.646;8.906;2023-02-10T10:59:34;56.20;;;26.33;;
4597;SDS011;62772;48.646;8.906;2023-02-10T11:04:42;57.43;;;26.00;;
4597;SDS011;62772;48.646;8.906;2023-02-10T11:09:54;48.40;;;24.33;;
4597;SDS011;62772;48.646;8.906;2023-02-10T11:14:55;41.77;;;20.70;;
4597;SDS011;62772;48.646;8.906;2023-02-10T11:19:58;43.17;;;21.00;;
4597;SDS011;62772;48.646;8.906;2023-02-10T11:30:33;44.43;;;19.07;;
4597;SDS011;62772;48.646;8.906;2023-02-10T11:35:34;37.77;;;19.23;;
4597;SDS011;62772;48.646;8.906;2023-02-10T11:40:47;36.87;;;16.93;;
4597;SDS011;62772;48.646;8.906;2023-02-10T11:45:59;37.03;;;16.90;;
4597;SDS011;62772;48.646;8.906;2023-02-10T11:56:13;38.80;;;16.50;;
4597;SDS011;62772;48.646;8.906;2023-02-10T12:01:44;31.53;;;16.07;;
4597;SDS011;62772;48.646;8.906;2023-02-10T12:06:57;34.10;;;16.57;;
4597;SDS011;62772;48.646;8.906;2023-02-10T12:12:18;32.43;;;15.50;;
4597;SDS011;62772;48.646;8.906;2023-02-10T12:34:04;31.53;;;15.30;;
4597;SDS011;62772;48.646;8.906;2023-02-10T12:39:13;37.33;;;18.50;;
4597;SDS011;62772;48.646;8.906;2023-02-10T12:44:43;31.10;;;15.00;;
4597;SDS011;62772;48.646;8.906;2023-02-10T12:50:07;33.97;;;15.20;;
4597;SDS011;62772;48.646;8.906;2023-02-10T12:55:31;35.50;;;16.67;;
4597;SDS011;62772;48.646;8.906;2023-02-10T13:00:48;29.13;;;15.13;;
4597;SDS011;62772;48.646;8.906;2023-02-10T13:06:03;34.13;;;17.30;;
4597;SDS011;62772;48.646;8.906;2023-02-10T13:11:13;37.10;;;15.93;;
4597;SDS011;62772;48.646;8.906;2023-02-10T13:16:21;37.07;;;17.93;;
4597;SDS011;62772;48.646;8.906;2023-02-10T13:32:11;41.40;;;18.30;;
4597;SDS011;62772;48.646;8.906;2023-02-10T13:42:45;36.07;;;17.73;;
4597;SDS011;62772;48.646;8.906;2023-02-10T13:48:00;30.93;;;15.60;;
4597;SDS011;62772;48.646;8.906;2023-02-10T13:53:26;36.57;;;16.10;;
4597;SDS011;62772;48.646;8.906;2023-02-10T13:58:59;39.33;;;18.57;;
4597;SDS011;62772;48.646;8.906;2023-02-10T14:09:38;35.27;;;16.93;;
4597;SDS011;62772;48.646;8.906;2023-02-10T14:14:38;37.57;;;18.20;;
4597;SDS011;62772;48.646;8.906;2023-02-10T14:19:41;34.30;;;17.37;;
4597;SDS011;62772;48.646;8.906;2023-02-10T14:24:43;36.90;;;17.87;;
4597;SDS011;62772;48.646;8.906;2023-02-10T14:29:49;42.80;;;17.53;;
4597;SDS011;62772;48.646;8.906;2023-02-10T14:34:53;35.63;;;18.50;;
4597;SDS011;62772;48.646;8.906;2023-02-10T14:40:00;36.00;;;17.67;;
4597;SDS011;62772;48.646;8.906;2023-02-10T14:45:01;35.47;;;17.87;;
4597;SDS011;62772;48.646;8.906;2023-02-10T14:50:04;35.20;;;17.50;;
4597;SDS011;62772;48.646;8.906;2023-02-10T15:00:31;37.63;;;18.07;;
4597;SDS011;62772;48.646;8.906;2023-02-10T15:05:43;34.60;;;17.90;;
4597;SDS011;62772;48.646;8.906;2023-02-10T15:10:47;38.87;;;18.70;;
4597;SDS011;62772;48.646;8.906;2023-02-10T15:15:51;38.60;;;18.63;;
4597;SDS011;62772;48.646;8.906;2023-02-10T15:20:53;39.30;;;19.47;;
4597;SDS011;62772;48.646;8.906;2023-02-10T15:26:03;36.87;;;19.17;;
4597;SDS011;62772;48.646;8.906;2023-02-10T15:46:34;39.43;;;19.70;;
4597;SDS011;62772;48.646;8.906;2023-02-10T15:51:38;44.40;;;20.87;;
4597;SDS011;62772;48.646;8.906;2023-02-10T15:57:00;40.13;;;20.80;;
4597;SDS011;62772;48.646;8.906;2023-02-10T16:02:04;49.87;;;21.27;;
4597;SDS011;62772;48.646;8.906;2023-02-10T16:07:09;46.23;;;21.07;;
4597;SDS011;62772;48.646;8.906;2023-02-10T16:12:12;45.93;;;22.40;;
4597;SDS011;62772;48.646;8.906;2023-02-10T16:17:17;57.20;;;21.27;;
4597;SDS011;62772;48.646;8.906;2023-02-10T16:22:21;42.93;;;20.80;;
4597;SDS011;62772;48.646;8.906;2023-02-10T16:27:22;48.73;;;21.33;;
4597;SDS011;62772;48.646;8.906;2023-02-10T16:32:22;43.50;;;22.00;;
4597;SDS011;62772;48.646;8.906;2023-02-10T16:37:23;40.67;;;20.50;;
4597;SDS011;62772;48.646;8.906;2023-02-10T16:42:23;41.87;;;20.17;;
4597;SDS011;62772;48.646;8.906;2023-02-10T16:47:24;48.63;;;22.73;;
4597;SDS011;62772;48.646;8.906;2023-02-10T16:52:24;46.07;;;22.03;;
4597;SDS011;62772;48.646;8.906;2023-02-10T16:57:25;69.63;;;23.53;;
4597;SDS011;62772;48.646;8.906;2023-02-10T17:02:25;49.03;;;20.30;;
4597;SDS011;62772;48.646;8.906;2023-02-10T17:07:26;44.23;;;20.50;;
4597;SDS011;62772;48.646;8.906;2023-02-10T17:12:26;49.60;;;22.87;;
4597;SDS011;62772;48.646;8.906;2023-02-10T17:17:26;55.17;;;22.43;;
4597;SDS011;62772;48.646;8.906;2023-02-10T17:22:27;54.03;;;24.17;;
4597;SDS011;62772;48.646;8.906;2023-02-10T17:27:27;42.50;;;20.80;;
4597;SDS011;62772;48.646;8.906;2023-02-10T17:32:28;53.80;;;23.63;;
4597;SDS011;62772;48.646;8.906;2023-02-10T17:37:38;43.63;;;22.38;;
4597;SDS011;62772;48.646;8.906;2023-02-10T17:42:39;39.63;;;20.50;;
4597;SDS011;62772;48.646;8.906;2023-02-10T17:47:40;49.73;;;21.50;;
4597;SDS011;62772;48.646;8.906;2023-02-10T17:52:40;44.13;;;21.00;;
4597;SDS011;62772;48.646;8.906;2023-02-10T17:57:42;57.37;;;24.50;;
4597;SDS011;62772;48.646;8.906;2023-02-10T18:02:42;65.20;;;29.23;;
4597;SDS011;62772;48.646;8.906;2023-02-10T18:07:43;56.23;;;25.17;;
4597;SDS011;62772;48.646;8.906;2023-02-10T18:12:43;51.13;;;24.43;;
4597;SDS011;62772;48.646;8.906;2023-02-10T18:17:44;58.70;;;24.47;;
4597;SDS011;62772;48.646;8.906;2023-02-10T18:22:46;48.73;;;22.20;;
4597;SDS011;62772;48.646;8.906;2023-02-10T18:27:48;51.50;;;24.10;;
4597;SDS011;62772;48.646;8.906;2023-02-10T18:32:50;54.30;;;23.73;;
4597;SDS011;62772;48.646;8.906;2023-02-10T18:37:50;47.03;;;22.77;;
4597;SDS011;62772;48.646;8.906;2023-02-10T18:42:51;50.87;;;23.37;;
4597;SDS011;62772;48.646;8.906;2023-02-10T18:47:52;47.57;;;22.70;;
4597;SDS011;62772;48.646;8.906;2023-02-10T18:52:53;45.07;;;23.63;;
4597;SDS011;62772;48.646;8.906;2023-02-10T18:57:53;50.50;;;23.43;;
4597;SDS011;62772;48.646;8.906;2023-02-10T19:02:54;49.40;;;21.00;;
4597;SDS011;62772;48.646;8.906;2023-02-10T19:07:54;56.80;;;23.97;;
4597;SDS011;62772;48.646;8.906;2023-02-10T19:12:54;47.80;;;20.63;;
4597;SDS011;62772;48.646;8.906;2023-02-10T19:17:55;41.37;;;19.60;;
4597;SDS011;62772;48.646;8.906;2023-02-10T19:22:55;38.03;;;19.17;;
4597;SDS011;62772;48.646;8.906;2023-02-10T19:27:56;39.23;;;19.10;;
4597;SDS011;62772;48.646;8.906;2023-02-10T19:32:57;37.37;;;18.63;;
4597;SDS011;62772;48.646;8.906;2023-02-10T19:37:58;43.70;;;21.23;;
4597;SDS011;62772;48.646;8.906;2023-02-10T19:42:59;51.63;;;23.27;;
4597;SDS011;62772;48.646;8.906;2023-02-10T19:47:59;42.20;;;20.20;;
4597;SDS011;62772;48.646;8.906;2023-02-10T19:53:00;39.30;;;18.53;;
4597;SDS011;62772;48.646;8.906;2023-02-10T19:58:00;49.93;;;20.67;;
4597;SDS011;62772;48.646;8.906;2023-02-10T20:03:01;48.83;;;21.10;;
4597;SDS011;62772;48.646;8.906;2023-02-10T20:08:01;56.13;;;21.10;;
4597;SDS011;62772;48.646;8.906;2023-02-10T20:13:02;48.40;;;20.30;;
4597;SDS011;62772;48.646;8.906;2023-02-10T20:18:02;42.07;;;19.40;;
4597;SDS011;62772;48.646;8.906;2023-02-10T20:23:03;40.57;;;17.80;;
4597;SDS011;62772;48.646;8.906;2023-02-10T20:28:03;39.53;;;17.23;;
4597;SDS011;62772;48.646;8.906;2023-02-10T20:33:04;43.37;;;17.70;;
4597;SDS011;62772;48.646;8.906;2023-02-10T20:38:04;45.40;;;19.10;;
4597;SDS011;62772;48.646;8.906;2023-02-10T20:43:05;44.90;;;20.77;;
4597;SDS011;62772;48.646;8.906;2023-02-10T20:48:06;44.03;;;21.03;;
4597;SDS011;62772;48.646;8.906;2023-02-10T20:53:06;40.87;;;18.97;;
4597;SDS011;62772;48.646;8.906;2023-02-10T20:58:07;39.10;;;18.53;;
4597;SDS011;62772;48.646;8.906;2023-02-10T21:03:08;45.73;;;21.00;;
4597;SDS011;62772;48.646;8.906;2023-02-10T21:08:10;33.60;;;17.80;;
4597;SDS011;62772;48.646;8.906;2023-02-10T21:13:11;40.63;;;18.10;;
4597;SDS011;62772;48.646;8.906;2023-02-10T21:18:11;37.57;;;19.20;;
4597;SDS011;62772;48.646;8.906;2023-02-10T21:23:11;37.67;;;18.90;;
4597;SDS011;62772;48.646;8.906;2023-02-10T21:28:12;42.60;;;19.37;;
4597;SDS011;62772;48.646;8.906;2023-02-10T21:33:13;47.90;;;18.97;;
4597;SDS011;62772;48.646;8.906;2023-02-10T21:38:15;43.00;;;19.23;;
4597;SDS011;62772;48.646;8.906;2023-02-10T21:59:58;45.23;;;20.07;;
4597;SDS011;62772;48.646;8.906;2023-02-10T22:04:59;39.93;;;19.30;;
4597;SDS011;62772;48.646;8.906;2023-02-10T22:09:59;38.07;;;18.40;;
4597;SDS011;62772;48.646;8.906;2023-02-10T22:15:00;36.83;;;16.90;;
4597;SDS011;62772;48.646;8.906;2023-02-10T22:20:00;38.30;;;18.13;;
4597;SDS011;62772;48.646;8.906;2023-02-10T22:25:01;38.40;;;17.77;;
4597;SDS011;62772;48.646;8.906;2023-02-10T22:30:01;32.30;;;17.27;;
4597;SDS011;62772;48.646;8.906;2023-02-10T22:35:02;50.20;;;21.20;;
4597;SDS011;62772;48.646;8.906;2023-02-10T22:40:02;43.20;;;20.37;;
4597;SDS011;62772;48.646;8.906;2023-02-10T22:45:03;48.87;;;20.87;;
4597;SDS011;62772;48.646;8.906;2023-02-10T22:50:04;44.83;;;20.83;;
4597;SDS011;62772;48.646;8.906;2023-02-10T22:55:05;53.07;;;21.00;;
4597;SDS011;62772;48.646;8.906;2023-02-10T23:00:07;44.57;;;20.70;;
4597;SDS011;62772;48.646;8.906;2023-02-10T23:05:10;47.20;;;19.77;;
4597;SDS011;62772;48.646;8.906;2023-02-10T23:10:10;34.30;;;16.63;;
4597;SDS011;62772;48.646;8.906;2023-02-10T23:15:11;41.17;;;17.87;;
4597;SDS011;62772;48.646;8.906;2023-02-10T23:20:11;38.93;;;17.67;;
4597;SDS011;62772;48.646;8.906;2023-02-10T23:25:12;46.20;;;19.37;;
4597;SDS011;62772;48.646;8.906;2023-02-10T23:30:12;41.90;;;17.87;;
4597;SDS011;62772;48.646;8.906;2023-02-10T23:35:13;40.43;;;17.80;;
4597;SDS011;62772;48.646;8.906;2023-02-10T23:40:14;44.33;;;19.07;;
4597;SDS011;62772;48.646;8.906;2023-02-10T23:45:15;38.00;;;18.10;;
4597;SDS011;62772;48.646;8.906;2023-02-10T23:50:15;41.13;;;18.53;;
4597;SDS011;62772;48.646;8.906;2023-02-10T23:55:16;35.70;;;18.30;;
